Time;durP1;ratioP1;P1;durP2;ratioP2;P2;SDS_P1;SDS_P2;PMS_P1;PMS_P2;Temp;Humidity;BMP_temperature;BMP_pressure;BME280_temperature;BME280_humidity;BME280_pressure;Samples;Min_cycle;Max_cycle;Signal;HPM_P1;HPM_P2
2021/05/21 00:05:32;;;;;;;3.17;1.30;;;12.20;99.90;;;;;;12383512;28;20486;-41
2021/05/21 00:11:34;;;;;;;2.67;1.20;;;12.20;99.90;;;;;;12383670;28;20137;-41
2021/05/21 00:17:36;;;;;;;3.35;1.10;;;12.40;99.90;;;;;;12379231;28;20078;-41
2021/05/21 00:23:38;;;;;;;1.92;1.02;;;12.30;99.90;;;;;;12389780;28;20502;-41
2021/05/21 00:29:40;;;;;;;2.10;1.00;;;12.40;99.90;;;;;;12387639;28;20113;-41
2021/05/21 00:35:42;;;;;;;3.55;0.90;;;12.30;99.90;;;;;;12384621;28;20152;-41
2021/05/21 00:41:43;;;;;;;4.97;1.00;;;12.30;99.90;;;;;;12387556;28;20562;-40
2021/05/21 00:47:46;;;;;;;3.55;0.85;;;12.30;99.90;;;;;;12396097;28;20053;-40
2021/05/21 00:53:50;;;;;;;3.88;0.90;;;12.40;99.90;;;;;;12394994;28;20050;-40
2021/05/21 00:59:54;;;;;;;1.85;0.85;;;12.40;99.90;;;;;;12397361;28;20077;-41
2021/05/21 01:05:56;;;;;;;1.70;0.90;;;12.50;99.90;;;;;;12395728;28;20567;-41
2021/05/21 01:11:57;;;;;;;2.53;1.00;;;12.50;99.90;;;;;;12394408;28;20463;-41
2021/05/21 01:17:59;;;;;;;4.53;1.00;;;12.40;99.90;;;;;;12394314;28;20137;-40
2021/05/21 01:24:03;;;;;;;2.33;0.90;;;12.40;99.90;;;;;;12392101;28;20746;-41
2021/05/21 01:30:07;;;;;;;3.35;1.00;;;12.40;99.90;;;;;;12391496;28;20140;-41
2021/05/21 01:36:09;;;;;;;3.50;1.23;;;12.40;99.90;;;;;;12391646;28;20052;-41
2021/05/21 01:42:12;;;;;;;1.73;0.90;;;12.40;99.90;;;;;;12390328;28;20148;-40
2021/05/21 01:48:14;;;;;;;3.78;1.05;;;12.30;99.90;;;;;;12389784;28;20085;-41
2021/05/21 01:54:17;;;;;;;2.40;0.90;;;12.20;99.90;;;;;;12391373;28;20125;-41
2021/05/21 02:00:19;;;;;;;2.58;1.10;;;12.20;99.90;;;;;;12393321;28;20086;-40
2021/05/21 02:06:20;;;;;;;2.20;1.00;;;12.20;99.90;;;;;;12392300;28;20049;-41
2021/05/21 02:12:22;;;;;;;2.50;0.88;;;12.20;99.90;;;;;;12390966;28;20157;-41
2021/05/21 02:18:25;;;;;;;3.92;0.85;;;12.10;99.90;;;;;;12389227;28;20139;-42
2021/05/21 02:24:27;;;;;;;2.40;0.93;;;12.10;99.90;;;;;;12392395;28;20133;-40
2021/05/21 02:30:29;;;;;;;3.47;0.88;;;12.10;99.90;;;;;;12392167;28;20062;-41
2021/05/21 02:36:30;;;;;;;3.03;1.10;;;12.10;99.90;;;;;;12392403;28;20844;-41
2021/05/21 02:42:32;;;;;;;2.80;0.95;;;12.00;99.90;;;;;;12391362;28;20154;-41
2021/05/21 02:48:34;;;;;;;1.85;0.82;;;12.00;99.90;;;;;;12384242;28;20526;-43
2021/05/21 02:54:36;;;;;;;5.70;1.20;;;11.90;99.90;;;;;;12386547;28;20485;-40
2021/05/21 03:00:38;;;;;;;1.80;0.95;;;11.90;99.90;;;;;;12386591;28;20142;-40
2021/05/21 03:06:40;;;;;;;2.42;0.90;;;11.90;99.90;;;;;;12392532;28;20176;-41
2021/05/21 03:12:41;;;;;;;3.72;1.05;;;11.90;99.90;;;;;;12391012;28;20113;-40
2021/05/21 03:18:43;;;;;;;5.00;0.82;;;11.70;99.90;;;;;;12386954;28;20123;-41
2021/05/21 03:24:45;;;;;;;1.70;0.85;;;11.80;99.90;;;;;;12389479;28;20052;-41
2021/05/21 03:30:47;;;;;;;2.70;1.10;;;11.80;99.90;;;;;;12385173;28;20466;-40
2021/05/21 03:36:49;;;;;;;3.50;1.00;;;11.80;99.90;;;;;;12388379;28;20109;-41
2021/05/21 03:42:51;;;;;;;2.50;0.98;;;11.80;99.90;;;;;;12387461;28;20073;-42
2021/05/21 03:48:53;;;;;;;2.50;0.88;;;11.80;99.90;;;;;;12388345;28;20130;-40
2021/05/21 03:54:55;;;;;;;2.28;0.80;;;11.80;99.90;;;;;;12390772;28;20371;-41
2021/05/21 04:00:57;;;;;;;2.65;0.90;;;11.80;99.90;;;;;;12385089;28;20089;-40
2021/05/21 04:06:59;;;;;;;1.48;0.80;;;11.90;99.90;;;;;;12389799;28;20100;-41
2021/05/21 04:13:01;;;;;;;3.90;0.80;;;12.00;99.90;;;;;;12386942;28;20144;-40
2021/05/21 04:19:03;;;;;;;2.42;1.00;;;12.00;99.90;;;;;;12386881;28;20774;-41
2021/05/21 04:25:07;;;;;;;2.13;0.93;;;12.10;99.90;;;;;;12397552;28;20089;-41
2021/05/21 04:31:09;;;;;;;1.65;0.70;;;12.10;99.90;;;;;;12392581;28;20085;-41
2021/05/21 04:37:12;;;;;;;1.95;0.75;;;12.10;99.90;;;;;;12397184;28;20398;-40
2021/05/21 04:43:14;;;;;;;2.55;0.75;;;12.10;99.90;;;;;;12392446;28;20157;-40
2021/05/21 04:49:32;;;;;;;2.60;0.82;;;12.10;99.90;;;;;;12393259;28;20573;-40
2021/05/21 04:55:34;;;;;;;3.53;0.88;;;12.20;99.90;;;;;;12396153;28;20141;-41
2021/05/21 05:01:35;;;;;;;3.42;0.80;;;12.50;99.90;;;;;;12395524;28;20073;-40
2021/05/21 05:07:37;;;;;;;1.75;0.70;;;12.80;99.90;;;;;;12398785;28;20683;-41
2021/05/21 05:13:39;;;;;;;3.30;0.80;;;13.00;99.90;;;;;;12391224;28;20054;-41
2021/05/21 05:19:41;;;;;;;2.30;0.70;;;12.90;99.90;;;;;;12383025;28;21146;-41
2021/05/21 05:25:44;;;;;;;1.40;0.70;;;13.10;99.90;;;;;;12394004;28;20054;-41
2021/05/21 05:31:46;;;;;;;3.45;0.80;;;13.10;99.90;;;;;;12393265;28;20586;-41
2021/05/21 05:37:48;;;;;;;2.08;0.98;;;13.00;99.90;;;;;;12395463;28;20054;-41
2021/05/21 05:43:50;;;;;;;4.55;1.05;;;13.00;99.90;;;;;;12390832;28;20145;-41
2021/05/21 05:49:52;;;;;;;4.28;0.93;;;12.90;99.90;;;;;;12397975;28;20807;-41
2021/05/21 05:55:54;;;;;;;4.00;0.95;;;13.10;99.90;;;;;;12387275;28;20084;-41
2021/05/21 06:01:56;;;;;;;3.05;0.75;;;13.20;99.90;;;;;;12387821;28;20104;-41
2021/05/21 06:07:57;;;;;;;1.52;0.65;;;13.40;99.90;;;;;;12381722;28;20161;-41
2021/05/21 06:13:59;;;;;;;4.05;0.85;;;13.60;99.90;;;;;;12387546;28;20048;-41
2021/05/21 06:20:01;;;;;;;2.67;0.80;;;13.70;99.90;;;;;;12386929;28;20475;-41
2021/05/21 06:26:41;;;;;;;6.68;1.05;;;13.80;99.90;;;;;;12383944;28;20149;-41
2021/05/21 06:32:31;;;;;;;4.32;1.00;;;13.90;99.90;;;;;;12390090;28;20050;-41
2021/05/21 06:38:33;;;;;;;6.63;0.95;;;14.00;99.90;;;;;;12387316;28;20062;-41
2021/05/21 06:44:35;;;;;;;3.58;0.90;;;13.90;99.90;;;;;;12386061;28;20085;-40
2021/05/21 06:50:38;;;;;;;4.00;1.02;;;14.10;99.90;;;;;;12388205;28;20486;-41
2021/05/21 06:56:40;;;;;;;4.00;0.98;;;14.00;99.90;;;;;;12387095;28;20928;-41
2021/05/21 07:02:43;;;;;;;4.72;1.08;;;14.10;99.90;;;;;;12391714;28;20493;-43
2021/05/21 07:08:45;;;;;;;4.68;1.50;;;14.40;99.90;;;;;;12390586;28;20164;-41
2021/05/21 07:14:46;;;;;;;6.53;0.98;;;14.50;99.90;;;;;;12391638;28;20140;-41
2021/05/21 07:20:48;;;;;;;7.78;1.30;;;14.60;99.90;;;;;;12387320;28;20574;-42
2021/05/21 07:26:50;;;;;;;4.88;1.00;;;14.70;99.90;;;;;;12386891;28;20041;-41
2021/05/21 07:32:52;;;;;;;6.65;0.90;;;14.40;99.90;;;;;;12387593;28;20078;-41
2021/05/21 07:38:55;;;;;;;5.97;1.23;;;14.70;99.90;;;;;;12387987;28;20161;-41
2021/05/21 07:44:57;;;;;;;6.22;1.00;;;14.80;99.90;;;;;;12388514;28;20169;-41
2021/05/21 07:50:59;;;;;;;6.05;1.10;;;15.20;99.90;;;;;;12383905;28;20161;-42
2021/05/21 07:57:01;;;;;;;3.78;1.02;;;15.40;99.90;;;;;;12381951;28;20046;-41
2021/05/21 08:03:02;;;;;;;6.15;1.00;;;15.00;99.90;;;;;;12388048;28;20145;-41
2021/05/21 08:09:05;;;;;;;7.78;1.20;;;14.80;99.90;;;;;;12384042;28;20099;-41
2021/05/21 08:15:07;;;;;;;7.13;1.20;;;14.60;99.90;;;;;;12390264;28;20155;-41
2021/05/21 08:21:09;;;;;;;6.03;1.20;;;14.40;99.90;;;;;;12385982;28;20069;-41
2021/05/21 08:27:11;;;;;;;6.70;1.30;;;14.40;99.90;;;;;;12383333;28;20050;-40
2021/05/21 08:33:14;;;;;;;8.98;1.50;;;14.60;99.90;;;;;;12388396;28;20053;-41
2021/05/21 08:39:16;;;;;;;6.75;1.00;;;14.50;99.90;;;;;;12393169;28;20065;-41
2021/05/21 08:45:20;;;;;;;6.82;1.20;;;15.00;99.90;;;;;;12388819;28;20486;-41
2021/05/21 08:51:22;;;;;;;3.53;1.30;;;15.00;99.90;;;;;;12389591;28;20058;-41
2021/05/21 08:57:29;;;;;;;5.97;1.10;;;15.50;99.90;;;;;;12390726;28;20216;-41
2021/05/21 09:03:33;;;;;;;5.03;1.17;;;15.50;99.90;;;;;;12379909;28;20046;-40
2021/05/21 09:09:43;;;;;;;5.15;1.10;;;15.40;99.90;;;;;;12395790;28;20465;-41
2021/05/21 09:15:45;;;;;;;6.70;1.20;;;16.00;99.90;;;;;;12394908;28;20108;-41
2021/05/21 09:22:06;;;;;;;6.63;1.10;;;16.50;99.90;;;;;;12387522;28;20173;-41
2021/05/21 09:28:31;;;;;;;4.93;1.20;;;16.80;99.90;;;;;;12390230;28;20058;-41
2021/05/21 09:34:34;;;;;;;5.30;1.20;;;16.30;99.90;;;;;;12395003;28;20133;-41
2021/05/21 09:40:37;;;;;;;4.38;1.10;;;16.40;99.90;;;;;;12392257;28;20056;-41
2021/05/21 09:46:41;;;;;;;7.50;1.20;;;16.30;99.90;;;;;;12390540;28;20164;-41
2021/05/21 09:52:47;;;;;;;4.53;1.17;;;16.50;99.90;;;;;;12390609;28;20479;-42
2021/05/21 09:58:49;;;;;;;7.88;1.38;;;16.90;99.90;;;;;;12393866;28;20061;-41
2021/05/21 10:04:52;;;;;;;5.35;1.20;;;17.40;99.90;;;;;;12392577;28;20517;-41
2021/05/21 10:10:54;;;;;;;8.10;1.25;;;16.90;99.90;;;;;;12391673;28;20561;-41
2021/05/21 10:16:57;;;;;;;6.68;1.20;;;16.20;99.90;;;;;;12389485;28;20081;-41
2021/05/21 10:23:01;;;;;;;6.63;1.17;;;16.30;99.90;;;;;;12387107;28;20141;-42
2021/05/21 10:29:12;;;;;;;8.55;1.95;;;15.80;99.90;;;;;;12390253;28;20054;-41
2021/05/21 10:35:23;;;;;;;5.50;1.70;;;15.80;99.90;;;;;;12384786;28;20073;-40
2021/05/21 10:41:30;;;;;;;7.60;2.03;;;15.10;99.90;;;;;;12391039;28;20458;-41
2021/05/21 10:47:39;;;;;;;10.90;2.40;;;14.50;99.90;;;;;;12390214;28;20500;-40
2021/05/21 10:53:43;;;;;;;8.00;1.60;;;14.30;99.90;;;;;;12390444;28;20137;-40
2021/05/21 10:59:51;;;;;;;11.75;2.42;;;13.90;99.90;;;;;;12381511;28;20061;-40
2021/05/21 11:06:19;;;;;;;9.32;1.88;;;14.00;99.90;;;;;;12385098;28;20053;-40
2021/05/21 11:12:20;;;;;;;5.95;1.58;;;14.60;99.90;;;;;;12386084;28;20045;-41
2021/05/21 11:18:23;;;;;;;9.25;2.13;;;15.80;99.90;;;;;;12389059;28;20058;-40
2021/05/21 11:24:36;;;;;;;9.07;2.15;;;16.10;99.90;;;;;;12386509;28;20449;-41
2021/05/21 11:30:38;;;;;;;11.07;1.93;;;16.50;99.90;;;;;;12387600;28;20129;-41
2021/05/21 11:36:40;;;;;;;7.10;1.83;;;16.50;99.90;;;;;;12386956;28;20144;-41
2021/05/21 11:42:46;;;;;;;10.07;2.20;;;16.70;99.90;;;;;;12392545;28;20090;-40
2021/05/21 11:48:49;;;;;;;6.85;1.52;;;16.30;99.90;;;;;;12386355;28;20341;-41
2021/05/21 11:54:52;;;;;;;9.50;1.70;;;16.50;99.90;;;;;;12383756;28;20178;-42
2021/05/21 12:00:58;;;;;;;10.48;1.80;;;16.60;99.90;;;;;;12382964;28;20061;-40
2021/05/21 12:07:01;;;;;;;6.20;1.30;;;16.10;99.90;;;;;;12379377;28;20058;-42
2021/05/21 12:13:07;;;;;;;8.65;1.77;;;16.30;99.90;;;;;;12385170;28;20130;-41
2021/05/21 12:19:11;;;;;;;8.48;1.83;;;16.10;99.90;;;;;;12380979;28;20725;-41
2021/05/21 12:25:18;;;;;;;8.27;1.80;;;17.20;98.30;;;;;;12381222;28;20058;-42
2021/05/21 12:31:26;;;;;;;7.70;1.90;;;17.10;99.90;;;;;;12385688;28;20129;-41
2021/05/21 12:37:28;;;;;;;9.75;1.67;;;17.80;99.90;;;;;;12381182;28;20514;-41
2021/05/21 12:43:32;;;;;;;9.18;1.70;;;17.10;99.90;;;;;;12391434;28;20061;-40
2021/05/21 12:49:35;;;;;;;10.07;1.73;;;16.50;99.90;;;;;;12393803;28;20171;-41
2021/05/21 12:55:44;;;;;;;6.10;1.57;;;16.70;98.70;;;;;;12390684;28;20049;-41
2021/05/21 13:01:46;;;;;;;9.88;1.63;;;16.80;99.90;;;;;;12389207;28;20045;-41
2021/05/21 13:08:00;;;;;;;13.05;1.98;;;17.60;99.90;;;;;;12391818;28;20068;-40
2021/05/21 13:14:03;;;;;;;9.90;1.75;;;17.30;99.90;;;;;;12393551;28;20061;-41
2021/05/21 13:20:06;;;;;;;6.93;1.40;;;17.70;99.90;;;;;;12391471;28;20471;-40
2021/05/21 13:26:08;;;;;;;9.25;1.88;;;18.50;99.90;;;;;;12395396;28;20150;-41
2021/05/21 13:32:10;;;;;;;9.13;1.58;;;17.80;99.90;;;;;;12390097;28;20050;-40
2021/05/21 13:38:13;;;;;;;10.80;1.60;;;18.40;97.30;;;;;;12388325;28;20050;-41
2021/05/21 13:44:15;;;;;;;7.18;1.70;;;18.30;95.90;;;;;;12389705;28;20148;-41
2021/05/21 13:50:17;;;;;;;7.10;1.52;;;18.20;97.30;;;;;;12381394;28;20129;-41
2021/05/21 13:56:19;;;;;;;8.55;1.50;;;18.10;94.60;;;;;;12391468;28;20312;-40
2021/05/21 14:02:21;;;;;;;7.57;1.90;;;17.80;95.50;;;;;;12389199;28;20046;-41
2021/05/21 14:08:24;;;;;;;10.82;2.22;;;17.70;97.40;;;;;;12387931;28;20103;-42
2021/05/21 14:14:27;;;;;;;7.55;1.75;;;17.40;96.30;;;;;;12390475;28;20088;-41
2021/05/21 14:20:29;;;;;;;8.07;1.35;;;18.20;96.50;;;;;;12388468;28;20046;-41
2021/05/21 14:26:33;;;;;;;13.25;1.70;;;17.90;94.40;;;;;;12385136;28;20062;-41
2021/05/21 14:32:36;;;;;;;;;;;17.70;92.60;;;;;;12389008;28;20245;-40
2021/05/21 14:38:38;;;;;;;7.87;1.50;;;16.90;93.90;;;;;;12378487;28;20019;-40
2021/05/21 14:44:41;;;;;;;7.88;1.55;;;17.50;96.20;;;;;;12384413;28;20085;-41
2021/05/21 14:51:03;;;;;;;9.15;1.70;;;18.00;94.60;;;;;;4146400;22;20078;-38
2021/05/21 14:57:05;;;;;;;14.27;1.83;;;17.90;93.40;;;;;;12146264;23;20045;-80
2021/05/21 15:03:10;;;;;;;9.57;1.75;;;17.90;96.10;;;;;;12165733;28;20123;-84
2021/05/21 15:09:13;;;;;;;7.85;1.83;;;18.00;92.00;;;;;;12188079;28;20482;-84
2021/05/21 15:27:56;;;;;;;12.60;1.70;;;17.30;96.00;;;;;;12170218;28;20045;-84
2021/05/21 15:33:58;;;;;;;11.70;1.67;;;17.30;93.60;;;;;;12184422;28;20054;-85
2021/05/21 15:40:00;;;;;;;10.88;1.90;;;17.20;98.10;;;;;;12196572;28;20054;-81
2021/05/21 15:46:19;;;;;;;11.40;2.05;;;18.10;93.80;;;;;;12111870;28;20242;-83
2021/05/21 15:52:45;;;;;;;7.32;1.52;;;18.80;92.10;;;;;;12084183;28;20570;-84
2021/05/21 15:59:04;;;;;;;6.35;1.50;;;18.50;97.00;;;;;;12122755;28;20053;-83
2021/05/21 16:05:08;;;;;;;7.35;1.73;;;18.30;90.60;;;;;;12145332;28;20060;-85
2021/05/21 16:11:12;;;;;;;9.80;2.03;;;18.30;93.40;;;;;;12140503;28;20083;-84
2021/05/21 16:17:14;;;;;;;6.80;1.45;;;18.10;91.70;;;;;;12130016;28;20084;-84
2021/05/21 16:23:16;;;;;;;8.85;1.40;;;17.70;93.20;;;;;;12144014;28;20081;-84
2021/05/21 16:29:18;;;;;;;7.82;1.50;;;18.10;96.30;;;;;;12150365;28;20088;-83
2021/05/21 16:35:20;;;;;;;9.90;1.80;;;17.40;92.70;;;;;;12121906;28;20039;-83
2021/05/21 16:41:22;;;;;;;10.85;1.67;;;16.40;94.60;;;;;;12129887;28;20494;-83
2021/05/21 16:47:24;;;;;;;8.25;1.52;;;16.30;95.00;;;;;;12121262;28;20049;-83
2021/05/21 16:53:32;;;;;;;6.57;1.58;;;16.40;97.30;;;;;;12126436;28;20068;-84
2021/05/21 16:59:35;;;;;;;11.23;1.63;;;16.90;96.70;;;;;;12131374;28;20445;-85
2021/05/21 17:05:37;;;;;;;6.35;1.23;;;18.20;98.50;;;;;;12127864;28;20074;-85
2021/05/21 17:11:39;;;;;;;10.88;2.33;;;18.20;93.40;;;;;;12125340;28;20056;-84
2021/05/21 17:55:03;;;;;;;9.57;1.65;;;18.30;90.90;;;;;;12125854;28;20053;-82
2021/05/21 19:04:08;;;;;;;5.40;1.02;;;14.70;93.10;;;;;;12118256;28;20104;-82
2021/05/21 19:10:19;;;;;;;5.68;1.10;;;14.20;94.50;;;;;;12105503;28;20087;-81
2021/05/21 19:16:26;;;;;;;8.20;1.15;;;14.10;95.50;;;;;;12118902;28;20121;-81
2021/05/21 19:22:31;;;;;;;9.45;1.25;;;14.00;97.90;;;;;;12113098;28;20059;-81
2021/05/21 20:12:27;;;;;;;9.23;1.55;;;12.80;99.90;;;;;;12133060;28;20917;-83
2021/05/21 20:18:31;;;;;;;8.55;1.83;;;13.40;99.90;;;;;;12125306;28;20056;-83
2021/05/21 20:24:33;;;;;;;5.93;1.52;;;12.90;99.90;;;;;;12144116;28;20107;-83
2021/05/21 20:31:14;;;;;;;7.80;1.25;;;12.50;99.90;;;;;;12117915;28;20049;-83
2021/05/21 21:02:31;;;;;;;5.20;1.30;;;11.80;99.90;;;;;;12117352;28;21132;-82
2021/05/21 21:08:43;;;;;;;5.93;1.23;;;11.80;99.90;;;;;;12141599;28;20417;-83
2021/05/21 21:21:12;;;;;;;11.65;1.98;;;11.80;99.90;;;;;;12125168;28;20049;-82
2021/05/21 21:27:24;;;;;;;9.52;1.40;;;11.60;99.90;;;;;;12111637;28;20053;-82
2021/05/21 21:47:07;;;;;;;6.50;1.23;;;11.60;99.90;;;;;;12128266;28;20068;-82
2021/05/21 21:58:33;;;;;;;5.47;1.20;;;11.50;99.90;;;;;;12125715;28;20057;-82
2021/05/21 22:29:56;;;;;;;5.38;1.10;;;11.10;99.90;;;;;;12136487;28;20049;-81
2021/05/21 22:36:03;;;;;;;7.55;1.05;;;11.10;99.90;;;;;;12124391;28;20093;-81
2021/05/21 22:42:06;;;;;;;6.38;1.02;;;11.00;99.90;;;;;;12124793;28;20047;-82
2021/05/21 22:48:08;;;;;;;7.10;0.98;;;11.00;99.90;;;;;;12116981;28;20146;-82
2021/05/21 22:54:11;;;;;;;3.75;0.90;;;10.90;99.90;;;;;;12125122;28;20905;-82
2021/05/21 23:00:13;;;;;;;3.15;0.82;;;10.70;99.90;;;;;;12122219;28;20111;-82
2021/05/21 23:06:15;;;;;;;3.10;0.80;;;10.70;99.90;;;;;;12121565;28;20953;-83
2021/05/21 23:12:17;;;;;;;3.88;1.20;;;10.60;99.90;;;;;;12163859;28;20051;-82
2021/05/21 23:18:19;;;;;;;6.90;1.52;;;10.60;99.90;;;;;;12116546;28;20061;-82
2021/05/21 23:24:21;;;;;;;4.10;1.10;;;10.60;99.90;;;;;;12126115;28;20057;-82
2021/05/21 23:30:23;;;;;;;6.32;1.08;;;10.40;99.90;;;;;;12146254;28;20068;-81
2021/05/21 23:36:26;;;;;;;7.80;1.10;;;10.40;99.90;;;;;;12137353;28;20082;-81
2021/05/21 23:42:28;;;;;;;4.80;0.95;;;10.40;99.90;;;;;;12122432;28;20052;-81
2021/05/21 23:48:31;;;;;;;5.15;1.23;;;10.50;99.90;;;;;;12130026;28;20053;-83
2021/05/21 23:54:32;;;;;;;6.05;1.10;;;10.40;99.90;;;;;;12111573;28;20576;-81
